createdAt,value
2022-11-23T00:01:32.707Z,99367.19
2022-11-23T00:04:03.532Z,99364.72
2022-11-23T00:06:31.737Z,99361.47
2022-11-23T00:08:59.549Z,99363.69
2022-11-23T00:11:28.950Z,99364.13
2022-11-23T00:13:57.043Z,99358.72
2022-11-23T00:16:27.824Z,99357.03
2022-11-23T00:18:56.732Z,99356.53
2022-11-23T00:21:25.939Z,99360.09
2022-11-23T00:23:54.295Z,99365.38
2022-11-23T00:26:22.211Z,99365.28
2022-11-23T00:28:50.355Z,99368.00
2022-11-23T00:31:19.585Z,99370.66
2022-11-23T00:33:52.178Z,99361.94
2022-11-23T00:36:21.650Z,99365.72
2022-11-23T00:38:50.512Z,99357.13
2022-11-23T00:41:21.002Z,99357.22
2022-11-23T00:43:49.318Z,99359.97
2022-11-23T00:46:18.989Z,99359.69
2022-11-23T00:48:48.735Z,99349.75
2022-11-23T00:51:20.292Z,99362.78
2022-11-23T00:53:48.499Z,99363.31
2022-11-23T00:56:16.864Z,99362.97
2022-11-23T00:58:48.131Z,99364.09
2022-11-23T01:01:17.092Z,99366.97
2022-11-23T01:03:48.496Z,99363.81
2022-11-23T01:06:19.782Z,99363.09
2022-11-23T01:08:50.786Z,99362.97
2022-11-23T01:11:19.300Z,99366.88
2022-11-23T01:13:47.310Z,99353.09
2022-11-23T01:16:23.624Z,99361.88
2022-11-23T01:18:54.446Z,99363.03
2022-11-23T01:21:26.328Z,99367.91
2022-11-23T01:23:54.531Z,99366.13
2022-11-23T01:26:22.618Z,99364.47
2022-11-23T01:28:51.463Z,99370.44
2022-11-23T01:31:21.774Z,99360.97
2022-11-23T01:33:53.573Z,99361.75
2022-11-23T01:36:23.478Z,99369.53
2022-11-23T01:38:54.017Z,99368.13
2022-11-23T01:41:25.213Z,99369.34
2022-11-23T01:43:53.910Z,99364.66
2022-11-23T01:46:22.197Z,99368.19
2022-11-23T01:48:54.680Z,99367.84
2022-11-23T01:51:27.213Z,99371.91
2022-11-23T01:54:01.540Z,99369.69
2022-11-23T01:56:33.021Z,99375.34
2022-11-23T01:59:05.971Z,99367.41
2022-11-23T02:01:33.983Z,99382.00
2022-11-23T02:04:03.801Z,99372.44
2022-11-23T02:06:34.007Z,99368.06
2022-11-23T02:09:04.913Z,99379.28
2022-11-23T02:11:32.781Z,99376.28
2022-11-23T02:14:00.722Z,99379.72
2022-11-23T02:16:31.839Z,99385.06
2022-11-23T02:18:59.673Z,99375.72
2022-11-23T02:21:29.450Z,99377.91
2022-11-23T02:24:04.677Z,99377.28
2022-11-23T02:26:36.966Z,99376.06
2022-11-23T02:29:10.908Z,99383.81
2022-11-23T02:31:38.986Z,99381.78
2022-11-23T02:34:06.823Z,99386.16
2022-11-23T02:36:39.943Z,99385.13
2022-11-23T02:39:14.012Z,99382.38
2022-11-23T02:41:45.861Z,99383.09
2022-11-23T02:44:26.820Z,99373.59
2022-11-23T02:46:55.259Z,99377.44
2022-11-23T02:49:23.417Z,99372.59
2022-11-23T02:51:52.461Z,99371.72
2022-11-23T02:54:20.637Z,99374.50
2022-11-23T02:56:49.902Z,99380.69
2022-11-23T02:59:19.361Z,99373.06
2022-11-23T03:01:47.334Z,99373.75
2022-11-23T03:04:15.653Z,99383.06
2022-11-23T03:06:43.685Z,99375.13
2022-11-23T03:09:11.657Z,99375.88
2022-11-23T03:11:39.557Z,99373.50
2022-11-23T03:14:09.089Z,99380.53
2022-11-23T03:16:44.936Z,99369.56
2022-11-23T03:19:13.427Z,99374.50
2022-11-23T03:21:41.491Z,99375.25
2022-11-23T03:24:09.486Z,99376.66
2022-11-23T03:26:38.416Z,99370.81
2022-11-23T03:29:12.925Z,99372.75
2022-11-23T03:31:41.740Z,99374.84
2022-11-23T03:34:13.606Z,99371.19
2022-11-23T03:36:41.723Z,99380.91
2022-11-23T03:39:10.100Z,99380.25
2022-11-23T03:42:15.909Z,99384.03
2022-11-23T03:44:45.136Z,99382.50
2022-11-23T03:47:12.988Z,99379.66
2022-11-23T03:49:40.872Z,99382.94
2022-11-23T03:52:10.421Z,99376.72
2022-11-23T03:54:38.314Z,99380.00
2022-11-23T03:57:06.262Z,99382.44
2022-11-23T03:59:34.420Z,99374.63
2022-11-23T04:02:03.893Z,99371.81
2022-11-23T04:04:35.934Z,99376.72
2022-11-23T04:07:09.362Z,99380.28
2022-11-23T04:09:42.211Z,99374.75
2022-11-23T04:12:27.159Z,99370.56
2022-11-23T04:14:55.052Z,99381.34
2022-11-23T04:17:24.478Z,99383.75
2022-11-23T04:19:52.389Z,99379.09
2022-11-23T04:22:20.183Z,99385.94
2022-11-23T04:24:48.513Z,99379.53
2022-11-23T04:27:17.171Z,99381.81
2022-11-23T04:29:45.471Z,99381.75
2022-11-23T04:32:13.659Z,99380.44
2022-11-23T04:34:43.006Z,99376.66
2022-11-23T04:37:13.823Z,99381.94
2022-11-23T04:39:43.697Z,99389.16
2022-11-23T04:42:34.383Z,99389.03
2022-11-23T04:45:03.230Z,99384.28
2022-11-23T04:47:31.974Z,99380.13
2022-11-23T04:50:05.639Z,99384.56
2022-11-23T04:52:33.578Z,99394.28
2022-11-23T04:55:01.755Z,99394.72
2022-11-23T04:57:32.407Z,99404.19
2022-11-23T05:00:00.364Z,99400.41
2022-11-23T05:02:29.624Z,99404.81
2022-11-23T05:05:24.773Z,99411.19
2022-11-23T05:07:52.712Z,99410.34
2022-11-23T05:10:23.513Z,99410.47
2022-11-23T05:12:54.554Z,99410.53
2022-11-23T05:15:23.140Z,99412.16
2022-11-23T05:17:54.100Z,99406.44
2022-11-23T05:20:27.842Z,99409.59
2022-11-23T05:22:55.934Z,99410.94
2022-11-23T05:25:25.996Z,99414.94
2022-11-23T05:28:11.444Z,99415.72
2022-11-23T05:30:51.401Z,99415.09
2022-11-23T05:33:19.988Z,99416.09
2022-11-23T05:35:49.372Z,99412.03
2022-11-23T05:38:19.545Z,99413.03
2022-11-23T05:40:47.610Z,99417.66
2022-11-23T05:43:16.364Z,99417.97
2022-11-23T05:45:44.188Z,99417.38
2022-11-23T05:48:12.477Z,99425.75
2022-11-23T05:50:54.662Z,99429.84
2022-11-23T05:53:29.957Z,99421.66
2022-11-23T05:56:06.873Z,99416.91
2022-11-23T05:58:40.776Z,99427.00
2022-11-23T06:01:09.443Z,99418.09
2022-11-23T06:03:39.113Z,99420.72
2022-11-23T06:06:09.041Z,99421.13
2022-11-23T06:08:44.438Z,99422.72
2022-11-23T06:11:16.572Z,99419.97
2022-11-23T06:13:47.383Z,99407.97
2022-11-23T06:16:16.700Z,99366.19
2022-11-23T06:18:57.651Z,99399.75
2022-11-23T06:21:27.018Z,99415.31
2022-11-23T06:23:58.527Z,99413.53
2022-11-23T06:26:30.353Z,99411.28
2022-11-23T06:28:58.645Z,99416.25
2022-11-23T06:31:26.791Z,99413.22
2022-11-23T06:33:54.679Z,99407.84
2022-11-23T06:36:23.217Z,99423.22
2022-11-23T06:38:54.936Z,99422.53
2022-11-23T06:41:30.922Z,99424.78
2022-11-23T06:44:00.412Z,99431.84
2022-11-23T06:46:39.004Z,99431.84
2022-11-23T06:49:07.000Z,99435.81
2022-11-23T06:51:34.965Z,99446.28
2022-11-23T06:54:04.605Z,99442.88
2022-11-23T06:56:32.775Z,99453.41
2022-11-23T06:59:01.192Z,99453.50
2022-11-23T07:01:29.314Z,99447.16
2022-11-23T07:04:03.031Z,99452.56
2022-11-23T07:06:35.504Z,99451.97
2022-11-23T07:09:11.511Z,99446.84
2022-11-23T07:11:48.462Z,99459.69
2022-11-23T07:14:17.871Z,99457.19
2022-11-23T07:16:48.573Z,99461.06
2022-11-23T07:19:16.528Z,99473.53
2022-11-23T07:21:46.391Z,99469.44
2022-11-23T07:24:15.666Z,99470.16
2022-11-23T07:26:43.507Z,99476.94
2022-11-23T07:29:11.859Z,99475.00
2022-11-23T07:31:39.951Z,99475.34
2022-11-23T07:34:09.304Z,99482.47
2022-11-23T07:36:37.733Z,99476.56
2022-11-23T07:39:07.089Z,99476.50
2022-11-23T07:41:36.422Z,99477.66
2022-11-23T07:44:22.718Z,99483.03
2022-11-23T07:46:54.239Z,99482.22
2022-11-23T07:49:22.621Z,99477.22
2022-11-23T07:51:50.408Z,99490.31
2022-11-23T07:54:23.435Z,99486.25
2022-11-23T07:56:53.127Z,99494.06
2022-11-23T07:59:21.306Z,99497.72
2022-11-23T08:01:53.108Z,99502.28
2022-11-23T08:04:24.169Z,99497.28
2022-11-23T08:06:52.330Z,99500.31
2022-11-23T08:09:20.432Z,99504.50
2022-11-23T08:11:48.468Z,99500.94
2022-11-23T08:14:17.789Z,99494.91
2022-11-23T08:16:45.652Z,99498.00
2022-11-23T08:19:13.520Z,99494.50
2022-11-23T08:21:41.336Z,99503.56
2022-11-23T08:24:09.573Z,99501.38
2022-11-23T08:26:37.345Z,99499.53
2022-11-23T08:29:05.563Z,99501.72
2022-11-23T08:31:34.876Z,99502.97
2022-11-23T08:34:03.773Z,99501.09
2022-11-23T08:36:38.232Z,99495.03
2022-11-23T08:39:11.930Z,99503.91
2022-11-23T08:41:45.154Z,99496.97
2022-11-23T08:44:17.289Z,99502.22
2022-11-23T08:46:47.392Z,99500.50
2022-11-23T08:49:19.598Z,99498.78
2022-11-23T08:51:50.221Z,99498.09
2022-11-23T08:54:18.524Z,99500.94
2022-11-23T08:56:46.343Z,99500.91
2022-11-23T08:59:14.211Z,99504.25
2022-11-23T09:01:42.593Z,99501.38
2022-11-23T09:04:16.379Z,99501.06
2022-11-23T09:06:47.071Z,99508.56
2022-11-23T09:09:15.201Z,99498.19
2022-11-23T09:11:49.528Z,99515.28
2022-11-23T09:14:21.997Z,99512.31
2022-11-23T09:16:50.884Z,99509.44
2022-11-23T09:19:22.045Z,99505.72
2022-11-23T09:21:50.925Z,99512.19
2022-11-23T09:24:23.404Z,99513.69
2022-11-23T09:26:51.275Z,99512.91
2022-11-23T09:29:19.314Z,99512.41
2022-11-23T09:31:47.333Z,99523.31
2022-11-23T09:34:15.525Z,99512.75
2022-11-23T09:36:45.281Z,99505.72
2022-11-23T09:39:13.803Z,99509.22
2022-11-23T09:42:06.249Z,99518.13
2022-11-23T09:45:00.008Z,99523.25
2022-11-23T09:47:47.176Z,99514.94
2022-11-23T09:50:24.440Z,99510.56
2022-11-23T09:52:55.226Z,99515.50
2022-11-23T09:55:31.209Z,99516.69
2022-11-23T09:58:06.347Z,99517.13
2022-11-23T10:00:39.848Z,99519.66
2022-11-23T10:03:15.834Z,99515.13
2022-11-23T10:05:51.713Z,99520.88
2022-11-23T10:08:32.676Z,99516.25
2022-11-23T10:11:16.387Z,99519.06
2022-11-23T10:13:46.665Z,99521.00
2022-11-23T10:16:30.283Z,99519.56
2022-11-23T10:19:04.823Z,99519.28
2022-11-23T10:21:45.567Z,99520.25
2022-11-23T10:24:22.453Z,99510.03
2022-11-23T10:26:52.062Z,99510.31
2022-11-23T10:29:28.649Z,99524.19
2022-11-23T10:31:58.731Z,99512.00
2022-11-23T10:34:52.088Z,99511.25
2022-11-23T10:37:20.180Z,99505.75
2022-11-23T10:39:49.395Z,99501.75
2022-11-23T10:42:24.166Z,99520.53
2022-11-23T10:44:54.269Z,99516.00
2022-11-23T10:47:38.663Z,99533.16
2022-11-23T10:50:25.848Z,99525.72
2022-11-23T10:52:56.361Z,99530.47
2022-11-23T10:55:29.810Z,99532.38
2022-11-23T10:57:58.267Z,99535.94
2022-11-23T11:00:30.837Z,99525.59
2022-11-23T11:03:00.427Z,99529.31
2022-11-23T11:08:29.241Z,99539.91
2022-11-23T11:11:04.681Z,99530.09
2022-11-23T11:13:41.239Z,99537.19
2022-11-23T11:16:24.992Z,99528.81
2022-11-23T11:18:53.227Z,99531.91
2022-11-23T11:21:24.176Z,99529.91
2022-11-23T11:23:54.956Z,99523.16
2022-11-23T11:26:26.971Z,99518.66
2022-11-23T11:28:56.884Z,99518.25
2022-11-23T11:31:34.693Z,99522.66
2022-11-23T11:34:12.460Z,99519.44
2022-11-23T11:36:45.951Z,99507.00
2022-11-23T11:39:20.073Z,99502.66
2022-11-23T11:41:52.606Z,99507.66
2022-11-23T11:44:23.752Z,99508.69
2022-11-23T11:46:58.412Z,99511.41
2022-11-23T11:49:29.954Z,99515.31
2022-11-23T11:52:06.934Z,99507.00
2022-11-23T11:54:42.984Z,99493.75
2022-11-23T11:57:18.908Z,99491.31
2022-11-23T11:59:48.822Z,99491.19
2022-11-23T12:02:24.640Z,99497.56
2022-11-23T12:05:06.692Z,99491.28
2022-11-23T12:07:37.414Z,99487.63
2022-11-23T12:10:11.497Z,99473.69
2022-11-23T12:12:40.976Z,99455.97
2022-11-23T12:15:41.486Z,99458.91
2022-11-23T12:18:33.537Z,99454.59
2022-11-23T12:21:24.188Z,99465.03
2022-11-23T12:24:02.595Z,99470.69
2022-11-23T12:26:38.892Z,99478.03
2022-11-23T12:29:33.126Z,99466.66
2022-11-23T12:32:12.843Z,99462.31
2022-11-23T12:34:57.456Z,99456.03
2022-11-23T12:37:40.524Z,99456.31
2022-11-23T12:40:28.122Z,99456.91
2022-11-23T12:43:02.491Z,99456.91
2022-11-23T12:45:54.849Z,99456.81
2022-11-23T12:48:41.793Z,99459.38
2022-11-23T12:51:19.768Z,99468.19
2022-11-23T12:53:55.813Z,99455.03
2022-11-23T12:56:44.591Z,99445.63
2022-11-23T12:59:14.848Z,99445.03
2022-11-23T13:01:50.309Z,99452.97
2022-11-23T13:05:03.657Z,99450.41
2022-11-23T13:08:04.062Z,99464.16
2022-11-23T13:10:49.430Z,99454.97
2022-11-23T13:13:35.943Z,99456.03
2022-11-23T13:16:29.624Z,99459.50
2022-11-23T13:19:15.148Z,99459.84
2022-11-23T13:21:45.116Z,99459.84
2022-11-23T13:24:26.838Z,99462.97
2022-11-23T13:27:32.366Z,99464.88
2022-11-23T13:30:01.414Z,99465.63
2022-11-23T13:32:38.051Z,99455.66
2022-11-23T13:35:45.924Z,99459.53
2022-11-23T13:38:24.811Z,99456.75
2022-11-23T13:40:52.858Z,99445.06
2022-11-23T13:43:24.191Z,99446.31
2022-11-23T13:46:30.308Z,99428.72
2022-11-23T13:48:59.869Z,99421.69
2022-11-23T13:51:31.767Z,99429.38
2022-11-23T13:54:03.312Z,99436.41
2022-11-23T13:56:35.072Z,99431.47
2022-11-23T13:59:31.089Z,99432.09
2022-11-23T14:02:29.079Z,99434.66
2022-11-23T14:05:41.466Z,99438.94
2022-11-23T14:08:14.403Z,99444.94
2022-11-23T14:10:42.552Z,99443.03
2022-11-23T14:13:18.333Z,99437.97
2022-11-23T14:15:55.014Z,99437.59
2022-11-23T14:18:44.118Z,99445.94
2022-11-23T14:21:15.739Z,99438.47
2022-11-23T14:24:04.102Z,99451.28
2022-11-23T14:26:39.492Z,99435.50
2022-11-23T14:29:29.642Z,99443.22
2022-11-23T14:32:22.769Z,99440.44
2022-11-23T14:35:02.131Z,99435.16
2022-11-23T14:37:42.436Z,99434.31
2022-11-23T14:40:22.877Z,99440.13
2022-11-23T14:42:54.531Z,99439.53
2022-11-23T14:45:24.689Z,99438.38
2022-11-23T14:47:52.497Z,99431.31
2022-11-23T14:50:25.197Z,99438.22
2022-11-23T14:52:54.700Z,99448.03
2022-11-23T14:55:26.496Z,99451.72
2022-11-23T14:57:58.695Z,99459.09
2022-11-23T15:00:33.859Z,99461.25
2022-11-23T15:03:42.040Z,99457.22
2022-11-23T15:06:07.278Z,99462.78
2022-11-23T15:08:50.607Z,99461.63
2022-11-23T15:11:22.364Z,99468.31
2022-11-23T15:13:52.528Z,99468.47
2022-11-23T15:16:22.250Z,99474.91
2022-11-23T15:18:50.476Z,99479.63
2022-11-23T15:21:31.238Z,99472.59
2022-11-23T15:24:03.781Z,99468.63
2022-11-23T15:26:50.155Z,99470.69
2022-11-23T15:29:41.417Z,99472.91
2022-11-23T15:32:32.631Z,99471.47
2022-11-23T15:35:07.369Z,99470.97
2022-11-23T15:37:44.437Z,99477.91
2022-11-23T15:40:17.547Z,99483.50
2022-11-23T15:42:49.889Z,99478.63
2022-11-23T15:46:14.610Z,99474.31
2022-11-23T15:48:50.476Z,99474.22
2022-11-23T15:51:31.790Z,99479.13
2022-11-23T15:54:01.732Z,99481.38
2022-11-23T15:56:32.864Z,99475.97
2022-11-23T15:59:05.496Z,99479.47
2022-11-23T16:01:34.779Z,99476.97
2022-11-23T16:04:04.686Z,99477.81
2022-11-23T16:06:39.444Z,99478.31
2022-11-23T16:10:03.723Z,99467.13
2022-11-23T16:12:33.681Z,99480.97
2022-11-23T16:15:33.980Z,99475.97
2022-11-23T16:18:02.403Z,99473.50
2022-11-23T16:20:31.082Z,99467.94
2022-11-23T16:23:01.046Z,99465.22
2022-11-23T16:25:32.428Z,99459.69
2022-11-23T16:28:00.752Z,99456.78
2022-11-23T16:30:38.051Z,99459.91
2022-11-23T16:33:06.325Z,99465.50
2022-11-23T16:35:34.030Z,99473.47
2022-11-23T16:38:01.805Z,99471.59
2022-11-23T16:40:29.608Z,99484.59
2022-11-23T16:42:57.542Z,99489.91
2022-11-23T16:45:25.620Z,99497.00
2022-11-23T16:47:56.716Z,99503.97
2022-11-23T16:50:25.192Z,99502.28
2022-11-23T16:52:53.924Z,99501.38
2022-11-23T16:55:21.697Z,99504.09
2022-11-23T16:57:50.190Z,99507.38
2022-11-23T17:00:24.916Z,99512.56
2022-11-23T17:02:52.722Z,99522.44
2022-11-23T17:05:24.168Z,99517.34
2022-11-23T17:07:52.170Z,99511.06
2022-11-23T17:10:19.998Z,99515.84
2022-11-23T17:12:52.354Z,99512.66
2022-11-23T17:15:22.308Z,99516.22
2022-11-23T17:17:50.610Z,99523.56
2022-11-23T17:20:19.410Z,99546.72
2022-11-23T17:22:51.468Z,99541.66
2022-11-23T17:25:20.288Z,99546.03
2022-11-23T17:27:48.431Z,99545.91
2022-11-23T17:30:20.786Z,99542.97
2022-11-23T17:32:49.049Z,99555.72
2022-11-23T17:35:17.855Z,99563.69
2022-11-23T17:37:46.296Z,99563.69
2022-11-23T17:40:18.131Z,99573.81
2022-11-23T17:42:46.229Z,99583.78
2022-11-23T17:45:15.061Z,99589.47
2022-11-23T17:47:44.527Z,99590.44
2022-11-23T17:50:17.430Z,99595.34
2022-11-23T17:52:45.310Z,99593.69
2022-11-23T17:55:14.291Z,99597.75
2022-11-23T17:57:43.915Z,99604.00
2022-11-23T18:00:18.644Z,99598.50
2022-11-23T18:02:46.919Z,99596.75
2022-11-23T18:05:19.746Z,99606.53
2022-11-23T18:07:49.746Z,99613.28
2022-11-23T18:10:18.199Z,99610.56
2022-11-23T18:12:48.016Z,99607.94
2022-11-23T18:15:16.255Z,99614.22
2022-11-23T18:17:44.136Z,99615.19
2022-11-23T18:20:13.332Z,99621.78
2022-11-23T18:22:41.429Z,99628.69
2022-11-23T18:25:10.563Z,99624.47
2022-11-23T18:27:38.549Z,99627.97
2022-11-23T18:30:09.307Z,99633.44
2022-11-23T18:32:37.159Z,99627.22
2022-11-23T18:35:05.633Z,99629.03
2022-11-23T18:37:33.469Z,99627.59
2022-11-23T18:40:01.343Z,99629.72
2022-11-23T18:42:29.282Z,99633.06
2022-11-23T18:44:57.140Z,99631.06
2022-11-23T18:47:26.294Z,99637.22
2022-11-23T18:49:54.591Z,99645.16
2022-11-23T18:52:23.064Z,99647.19
2022-11-23T18:54:50.866Z,99646.47
2022-11-23T18:57:40.325Z,99646.56
2022-11-23T19:00:12.474Z,99654.53
2022-11-23T19:02:42.569Z,99656.47
2022-11-23T19:05:10.807Z,99653.84
2022-11-23T19:07:39.130Z,99656.44
2022-11-23T19:10:07.808Z,99655.78
2022-11-23T19:12:35.875Z,99647.09
2022-11-23T19:15:05.245Z,99657.50
2022-11-23T19:17:33.304Z,99666.31
2022-11-23T19:20:03.647Z,99660.22
2022-11-23T19:22:33.497Z,99656.72
2022-11-23T19:25:01.346Z,99661.13
2022-11-23T19:27:29.227Z,99657.66
2022-11-23T19:29:57.162Z,99656.81
2022-11-23T19:32:25.168Z,99658.47
2022-11-23T19:34:55.151Z,99658.50
2022-11-23T19:37:24.557Z,99663.84
2022-11-23T19:39:52.533Z,99658.56
2022-11-23T19:42:20.551Z,99658.47
2022-11-23T19:44:48.605Z,99654.94
2022-11-23T19:47:22.313Z,99675.19
2022-11-23T19:49:50.938Z,99668.13
2022-11-23T19:52:18.769Z,99677.81
2022-11-23T19:54:48.018Z,99675.13
2022-11-23T19:57:15.868Z,99679.34
2022-11-23T19:59:43.753Z,99675.69
2022-11-23T20:02:21.794Z,99676.38
2022-11-23T20:04:49.730Z,99678.88
2022-11-23T20:07:17.635Z,99681.31
2022-11-23T20:09:47.311Z,99677.69
2022-11-23T20:12:15.332Z,99678.34
2022-11-23T20:14:43.439Z,99674.56
2022-11-23T20:17:11.335Z,99679.72
2022-11-23T20:19:40.417Z,99683.41
2022-11-23T20:22:08.773Z,99692.13
2022-11-23T20:24:36.735Z,99696.22
2022-11-23T20:27:06.007Z,99696.09
2022-11-23T20:29:34.333Z,99703.88
2022-11-23T20:32:02.796Z,99692.41
2022-11-23T20:34:30.744Z,99699.41
2022-11-23T20:36:59.988Z,99699.41
2022-11-23T20:39:27.844Z,99706.25
2022-11-23T20:41:55.719Z,99701.06
2022-11-23T20:44:30.760Z,99704.31
2022-11-23T20:47:03.125Z,99709.44
2022-11-23T20:49:32.046Z,99708.50
2022-11-23T20:52:00.319Z,99717.56
2022-11-23T20:54:28.258Z,99728.88
2022-11-23T20:56:58.063Z,99725.16
2022-11-23T20:59:27.445Z,99723.34
2022-11-23T21:01:55.352Z,99724.94
2022-11-23T21:04:23.298Z,99729.19
2022-11-23T21:06:52.032Z,99731.75
2022-11-23T21:09:20.048Z,99731.88
2022-11-23T21:12:05.769Z,99740.34
2022-11-23T21:14:35.313Z,99744.47
2022-11-23T21:17:03.476Z,99738.31
2022-11-23T21:19:32.831Z,99747.91
2022-11-23T21:22:04.496Z,99748.88
2022-11-23T21:24:34.986Z,99751.00
2022-11-23T21:27:03.556Z,99756.59
2022-11-23T21:29:31.737Z,99764.50
2022-11-23T21:32:01.702Z,99759.53
2022-11-23T21:34:30.849Z,99765.69
2022-11-23T21:36:59.399Z,99770.91
2022-11-23T21:39:29.768Z,99772.75
2022-11-23T21:41:57.647Z,99775.38
2022-11-23T21:44:25.414Z,99772.63
2022-11-23T21:46:53.248Z,99779.75
2022-11-23T21:49:22.656Z,99782.19
2022-11-23T21:51:50.417Z,99781.22
2022-11-23T21:54:18.139Z,99789.94
2022-11-23T21:56:46.934Z,99785.34
2022-11-23T21:59:15.240Z,99787.03
2022-11-23T22:01:43.606Z,99784.22
2022-11-23T22:04:12.983Z,99779.75
2022-11-23T22:06:45.327Z,99791.38
2022-11-23T22:09:14.092Z,99793.91
2022-11-23T22:11:44.089Z,99791.38
2022-11-23T22:14:13.668Z,99789.59
2022-11-23T22:16:43.414Z,99792.91
2022-11-23T22:19:12.906Z,99794.03
2022-11-23T22:21:44.242Z,99798.69
2022-11-23T22:24:13.881Z,99803.75
2022-11-23T22:26:42.044Z,99809.31
2022-11-23T22:29:10.631Z,99810.66
2022-11-23T22:31:39.306Z,99810.81
2022-11-23T22:34:11.200Z,99814.78
2022-11-23T22:36:39.499Z,99818.31
2022-11-23T22:39:09.567Z,99821.16
2022-11-23T22:41:38.220Z,99825.41
2022-11-23T22:44:07.827Z,99824.22
2022-11-23T22:46:36.753Z,99822.34
2022-11-23T22:49:05.513Z,99823.81
2022-11-23T22:51:33.547Z,99822.03
2022-11-23T22:54:02.322Z,99826.06
2022-11-23T22:56:32.741Z,99822.22
2022-11-23T22:59:01.000Z,99829.28
2022-11-23T23:01:30.944Z,99826.72
2022-11-23T23:04:01.291Z,99834.03
2022-11-23T23:06:33.663Z,99833.06
2022-11-23T23:09:02.787Z,99835.34
2022-11-23T23:11:33.386Z,99842.31
2022-11-23T23:14:01.722Z,99831.09
2022-11-23T23:16:30.037Z,99843.06
2022-11-23T23:18:59.204Z,99835.97
2022-11-23T23:21:28.784Z,99836.97
2022-11-23T23:23:59.289Z,99842.25
2022-11-23T23:26:28.529Z,99839.78
2022-11-23T23:28:59.068Z,99842.63
2022-11-23T23:31:28.015Z,99838.13
2022-11-23T23:33:56.992Z,99844.50
2022-11-23T23:36:25.556Z,99851.53
2022-11-23T23:38:53.587Z,99854.84
2022-11-23T23:41:22.073Z,99858.28
2022-11-23T23:43:50.117Z,99860.03
2022-11-23T23:46:19.698Z,99860.88
2022-11-23T23:48:48.113Z,99849.56
2022-11-23T23:51:17.642Z,99848.63
2022-11-23T23:53:46.228Z,99854.81
2022-11-23T23:56:16.470Z,99867.31
2022-11-23T23:58:45.439Z,99867.59
